Time;durP1;ratioP1;P1;durP2;ratioP2;P2;SDS_P1;SDS_P2;PMS_P1;PMS_P2;Temp;Humidity;BMP_temperature;BMP_pressure;BME280_temperature;BME280_humidity;BME280_pressure;Samples;Min_cycle;Max_cycle;Signal;HPM_P1;HPM_P2
2022/04/06 00:00:10;;;;;;;5.60;4.00;;;12.10;99.90;;;;;;5033787;28;20210;-58
2022/04/06 00:02:39;;;;;;;5.70;4.13;;;12.20;99.90;;;;;;5033581;28;20210;-58
2022/04/06 00:05:08;;;;;;;5.10;3.90;;;12.20;99.90;;;;;;5033564;28;20729;-58
2022/04/06 00:07:34;;;;;;;5.83;4.00;;;12.20;99.90;;;;;;5033715;28;20210;-58
2022/04/06 00:10:01;;;;;;;5.27;4.07;;;12.30;99.90;;;;;;5033627;28;20210;-58
2022/04/06 00:12:28;;;;;;;5.47;4.03;;;12.30;99.90;;;;;;5032636;28;20630;-58
2022/04/06 00:14:56;;;;;;;5.07;3.63;;;12.30;99.90;;;;;;5033379;28;20650;-57
2022/04/06 00:17:22;;;;;;;4.57;3.80;;;12.30;99.90;;;;;;5033258;28;20210;-58
2022/04/06 00:19:49;;;;;;;4.40;3.90;;;12.30;99.90;;;;;;5033502;28;20735;-58
2022/04/06 00:22:16;;;;;;;3.80;3.50;;;12.30;99.90;;;;;;5033287;28;20340;-57
2022/04/06 00:24:42;;;;;;;4.90;4.10;;;12.30;99.90;;;;;;5033231;28;20226;-58
2022/04/06 00:27:09;;;;;;;4.93;3.90;;;12.30;99.90;;;;;;5033128;28;20209;-59
2022/04/06 00:29:36;;;;;;;4.20;3.80;;;12.30;99.90;;;;;;5033189;28;20268;-58
2022/04/06 00:32:05;;;;;;;4.10;3.70;;;12.30;99.90;;;;;;5032756;28;20288;-58
2022/04/06 00:37:16;;;;;;;5.30;3.50;;;12.30;99.90;;;;;;5033205;28;20735;-57
2022/04/06 00:39:43;;;;;;;6.40;4.27;;;12.30;99.90;;;;;;5032938;28;20731;-58
2022/04/06 00:42:09;;;;;;;4.63;3.63;;;12.20;99.90;;;;;;5032603;28;20611;-57
2022/04/06 00:44:37;;;;;;;5.47;4.07;;;12.20;99.90;;;;;;5032611;28;20230;-57
2022/04/06 00:47:06;;;;;;;4.20;3.80;;;12.20;99.90;;;;;;5033126;28;20210;-58
2022/04/06 00:49:34;;;;;;;4.60;4.10;;;12.20;99.90;;;;;;5032853;28;20210;-57
2022/04/06 00:52:03;;;;;;;5.43;3.73;;;12.20;99.90;;;;;;5032415;28;20225;-57
2022/04/06 00:54:31;;;;;;;4.30;3.90;;;12.20;99.90;;;;;;5032429;28;20262;-58
2022/04/06 00:56:59;;;;;;;5.30;4.00;;;12.30;99.90;;;;;;5032454;28;20214;-58
2022/04/06 00:59:27;;;;;;;3.97;3.67;;;12.40;99.90;;;;;;5032702;28;20209;-58
2022/04/06 01:01:55;;;;;;;4.60;3.97;;;12.40;99.90;;;;;;5032387;28;20206;-59
2022/04/06 01:04:23;;;;;;;4.20;3.80;;;12.40;99.90;;;;;;5032438;28;20238;-57
2022/04/06 01:06:50;;;;;;;4.67;3.60;;;12.40;99.90;;;;;;5032480;28;20209;-56
2022/04/06 01:09:17;;;;;;;4.40;4.00;;;12.30;99.90;;;;;;5032363;28;20202;-57
2022/04/06 01:11:45;;;;;;;5.60;3.70;;;12.30;99.90;;;;;;5032395;28;20283;-57
2022/04/06 01:14:13;;;;;;;4.43;3.93;;;12.30;99.90;;;;;;5032156;28;20256;-58
2022/04/06 01:16:40;;;;;;;5.13;3.87;;;12.20;99.90;;;;;;5032259;28;20205;-57
2022/04/06 01:19:07;;;;;;;4.37;3.40;;;12.10;99.90;;;;;;5032242;28;20209;-57
2022/04/06 01:21:35;;;;;;;4.20;3.57;;;12.10;99.90;;;;;;5032313;28;20206;-58
2022/04/06 01:24:04;;;;;;;5.37;3.93;;;12.10;99.90;;;;;;5031559;28;20230;-57
2022/04/06 01:26:30;;;;;;;4.40;3.63;;;12.00;99.90;;;;;;5032277;28;20210;-58
2022/04/06 01:28:57;;;;;;;3.80;3.50;;;12.10;99.90;;;;;;5032252;28;20206;-57
2022/04/06 01:31:24;;;;;;;4.37;3.60;;;12.10;99.90;;;;;;5032205;28;20268;-57
2022/04/06 01:33:50;;;;;;;5.30;3.70;;;12.20;99.90;;;;;;5032223;28;20253;-57
2022/04/06 01:36:17;;;;;;;3.77;3.37;;;12.10;99.90;;;;;;5032032;28;20210;-57
2022/04/06 01:38:44;;;;;;;5.40;3.60;;;12.10;99.90;;;;;;5032024;28;20214;-57
2022/04/06 01:41:12;;;;;;;4.20;3.60;;;12.10;99.90;;;;;;5032140;28;20206;-57
2022/04/06 01:43:38;;;;;;;4.97;3.50;;;12.10;99.90;;;;;;5031894;28;20275;-58
2022/04/06 01:46:05;;;;;;;4.70;3.60;;;12.20;99.90;;;;;;5032109;28;20272;-57
2022/04/06 01:48:32;;;;;;;4.37;3.90;;;12.20;99.90;;;;;;5031982;28;20621;-57
2022/04/06 01:53:47;;;;;;;3.67;3.37;;;12.40;99.90;;;;;;5031653;28;20221;-57
2022/04/06 01:56:15;;;;;;;4.03;3.63;;;12.40;99.90;;;;;;5032518;28;20305;-58
2022/04/06 01:58:42;;;;;;;5.03;3.70;;;12.40;99.90;;;;;;5031966;28;20210;-57
2022/04/06 02:01:09;;;;;;;3.67;3.37;;;12.30;99.90;;;;;;5031752;28;20202;-57
2022/04/06 02:03:35;;;;;;;3.87;3.47;;;12.30;99.90;;;;;;5031419;28;20226;-58
2022/04/06 02:06:02;;;;;;;4.77;3.80;;;12.30;99.90;;;;;;5031972;28;20206;-58
2022/04/06 02:08:29;;;;;;;4.03;3.63;;;12.30;99.90;;;;;;5031920;28;20256;-57
2022/04/06 02:10:55;;;;;;;4.17;3.67;;;12.40;99.90;;;;;;5031857;28;20206;-58
2022/04/06 02:13:23;;;;;;;3.83;3.50;;;12.30;99.90;;;;;;5031576;28;20206;-58
2022/04/06 02:15:50;;;;;;;4.17;3.70;;;12.40;99.90;;;;;;5031582;28;20764;-58
2022/04/06 02:18:17;;;;;;;4.77;3.47;;;12.50;99.90;;;;;;5031827;28;20272;-56
2022/04/06 02:20:43;;;;;;;4.23;3.57;;;12.50;99.90;;;;;;5031822;28;20218;-56
2022/04/06 02:23:11;;;;;;;4.27;3.47;;;12.40;99.90;;;;;;5031450;28;20206;-58
2022/04/06 02:25:37;;;;;;;4.00;3.60;;;12.40;99.90;;;;;;5031608;28;20597;-58
2022/04/06 02:28:05;;;;;;;4.60;3.47;;;12.30;99.90;;;;;;5031631;28;20360;-56
2022/04/06 02:30:33;;;;;;;6.33;3.90;;;12.30;99.90;;;;;;5031568;28;20657;-58
2022/04/06 02:32:59;;;;;;;4.50;3.80;;;12.30;99.90;;;;;;5031562;28;20241;-57
2022/04/06 02:35:26;;;;;;;4.63;4.10;;;12.30;99.90;;;;;;5032562;28;20226;-58
2022/04/06 02:37:53;;;;;;;4.67;3.33;;;12.30;99.90;;;;;;5035463;28;20221;-57
2022/04/06 02:40:20;;;;;;;3.50;3.20;;;12.30;99.90;;;;;;5035409;28;20212;-57
2022/04/06 02:42:46;;;;;;;4.07;3.60;;;12.30;99.90;;;;;;5035088;28;20213;-58
2022/04/06 02:45:13;;;;;;;5.43;3.77;;;12.40;99.90;;;;;;5034923;28;20241;-57
2022/04/06 02:47:41;;;;;;;5.03;3.60;;;12.40;99.90;;;;;;5035393;28;20305;-58
2022/04/06 02:50:09;;;;;;;4.00;3.50;;;12.40;99.90;;;;;;5035581;28;20207;-57
2022/04/06 02:52:35;;;;;;;4.60;3.77;;;12.50;99.90;;;;;;5035016;28;20229;-58
2022/04/06 02:55:02;;;;;;;3.73;3.20;;;12.50;99.90;;;;;;5034948;28;20234;-58
2022/04/06 02:57:29;;;;;;;3.73;3.23;;;12.50;99.90;;;;;;5035480;28;20206;-59
2022/04/06 02:59:55;;;;;;;4.47;3.67;;;12.50;99.90;;;;;;5035056;28;20210;-58
2022/04/06 03:02:22;;;;;;;5.83;3.97;;;12.50;99.90;;;;;;5034864;28;20244;-57
2022/04/06 03:04:50;;;;;;;6.23;5.20;;;12.50;99.90;;;;;;5034896;28;20230;-59
2022/04/06 03:07:20;;;;;;;6.33;5.73;;;12.60;99.90;;;;;;5034846;28;20213;-57
2022/04/06 03:09:47;;;;;;;6.57;3.90;;;12.60;99.90;;;;;;5034854;28;20241;-59
2022/04/06 03:12:13;;;;;;;4.37;3.97;;;12.60;99.90;;;;;;5034414;28;20634;-57
2022/04/06 03:14:40;;;;;;;6.10;3.80;;;12.60;99.90;;;;;;5034522;28;20598;-58
2022/04/06 03:17:07;;;;;;;4.30;3.40;;;12.50;99.90;;;;;;5034764;28;20565;-59
2022/04/06 03:19:34;;;;;;;4.23;3.70;;;12.40;99.90;;;;;;5034610;28;20733;-57
2022/04/06 03:22:02;;;;;;;8.33;4.27;;;12.40;99.90;;;;;;5034670;28;20213;-57
2022/04/06 03:24:29;;;;;;;4.53;3.70;;;12.30;99.90;;;;;;5034163;28;20647;-57
2022/04/06 03:26:55;;;;;;;6.70;4.33;;;12.30;99.90;;;;;;5034373;28;20210;-59
2022/04/06 03:29:22;;;;;;;5.33;4.40;;;12.20;99.90;;;;;;5034543;28;20214;-57
2022/04/06 03:31:49;;;;;;;5.37;4.40;;;12.20;99.90;;;;;;5034536;28;20210;-57
2022/04/06 03:34:15;;;;;;;3.73;3.33;;;12.20;99.90;;;;;;5034109;28;20226;-59
2022/04/06 03:36:42;;;;;;;5.50;3.90;;;12.20;99.90;;;;;;5034115;28;20210;-58
2022/04/06 03:39:10;;;;;;;5.17;3.87;;;12.20;99.90;;;;;;5034175;28;20202;-58
2022/04/06 03:41:37;;;;;;;4.33;3.70;;;12.10;99.90;;;;;;5034091;28;20276;-57
2022/04/06 03:44:04;;;;;;;4.70;4.03;;;12.20;99.90;;;;;;5033640;28;20702;-58
2022/04/06 03:46:31;;;;;;;5.17;4.30;;;12.20;99.90;;;;;;5033325;28;20630;-57
2022/04/06 03:48:58;;;;;;;4.20;3.60;;;12.20;99.90;;;;;;5033509;28;20627;-59
2022/04/06 03:51:24;;;;;;;6.73;5.03;;;12.20;99.90;;;;;;5033871;28;20684;-58
2022/04/06 03:53:51;;;;;;;5.50;4.10;;;12.30;99.90;;;;;;5033452;28;20721;-57
2022/04/06 03:56:19;;;;;;;6.93;3.53;;;12.30;99.90;;;;;;5034141;28;20233;-57
2022/04/06 03:58:46;;;;;;;5.37;4.40;;;12.30;99.90;;;;;;5034011;28;20275;-57
2022/04/06 04:01:12;;;;;;;5.63;3.67;;;12.30;99.90;;;;;;5033676;28;20816;-58
2022/04/06 04:03:39;;;;;;;4.87;3.80;;;12.30;99.90;;;;;;5033333;28;20560;-58
2022/04/06 04:06:06;;;;;;;8.07;4.70;;;12.30;99.90;;;;;;5033552;28;20235;-57
2022/04/06 04:08:33;;;;;;;8.07;3.83;;;12.40;99.90;;;;;;5033515;28;20272;-59
2022/04/06 04:11:00;;;;;;;4.87;3.80;;;12.40;99.90;;;;;;5034029;28;20264;-57
2022/04/06 04:13:28;;;;;;;5.13;4.20;;;12.40;99.90;;;;;;5033302;28;20682;-57
2022/04/06 04:15:54;;;;;;;7.83;4.23;;;12.40;99.90;;;;;;5033669;28;20208;-58
2022/04/06 04:18:21;;;;;;;4.77;3.87;;;12.40;99.90;;;;;;5033749;28;20206;-57
2022/04/06 04:20:48;;;;;;;4.93;3.90;;;12.40;99.90;;;;;;5033449;28;20260;-57
2022/04/06 04:23:15;;;;;;;4.50;3.73;;;12.40;99.90;;;;;;5033614;28;20218;-57
2022/04/06 04:25:42;;;;;;;5.23;3.50;;;12.40;99.90;;;;;;5033255;28;20280;-56
2022/04/06 04:28:08;;;;;;;4.90;3.83;;;12.40;99.90;;;;;;5033583;28;20206;-56
2022/04/06 04:30:36;;;;;;;4.97;3.70;;;12.40;99.90;;;;;;5033503;28;20297;-57
2022/04/06 04:33:03;;;;;;;3.80;3.40;;;12.40;99.90;;;;;;5033099;28;20210;-57
2022/04/06 04:35:30;;;;;;;4.00;3.60;;;12.40;99.90;;;;;;5032975;28;20276;-57
2022/04/06 04:37:56;;;;;;;5.50;3.90;;;12.40;99.90;;;;;;5033274;28;20206;-57
2022/04/06 04:40:23;;;;;;;4.43;3.63;;;12.50;99.90;;;;;;5033055;28;20230;-58
2022/04/06 04:42:50;;;;;;;5.37;4.00;;;12.50;99.90;;;;;;5032818;28;20676;-57
2022/04/06 04:45:17;;;;;;;5.80;3.77;;;12.50;99.90;;;;;;5032888;28;20226;-57
2022/04/06 04:47:45;;;;;;;4.67;3.67;;;12.50;99.90;;;;;;5032723;28;20280;-58
2022/04/06 04:50:11;;;;;;;5.90;4.13;;;12.60;99.90;;;;;;5032676;28;20206;-59
2022/04/06 04:52:38;;;;;;;6.33;4.53;;;12.60;99.90;;;;;;5033010;28;20206;-58
2022/04/06 04:55:05;;;;;;;6.30;3.90;;;12.60;99.90;;;;;;5032731;28;20230;-58
2022/04/06 04:57:32;;;;;;;6.03;3.93;;;12.60;99.90;;;;;;5032883;28;20217;-59
2022/04/06 04:59:59;;;;;;;3.73;3.40;;;12.60;99.90;;;;;;5032502;28;20206;-58
2022/04/06 05:02:25;;;;;;;6.43;4.23;;;12.60;99.90;;;;;;5032341;28;20214;-58
2022/04/06 05:04:53;;;;;;;5.57;3.83;;;12.60;99.90;;;;;;5032335;28;20230;-58
2022/04/06 05:07:20;;;;;;;5.57;4.50;;;12.50;99.90;;;;;;5032768;28;20202;-58
2022/04/06 05:09:47;;;;;;;5.60;4.17;;;12.60;99.90;;;;;;5032624;28;20205;-57
2022/04/06 05:12:14;;;;;;;5.60;3.70;;;12.60;99.90;;;;;;5032544;28;20218;-58
2022/04/06 05:14:41;;;;;;;4.57;3.90;;;12.60;99.90;;;;;;5032099;28;20222;-59
2022/04/06 05:17:08;;;;;;;6.03;4.00;;;12.60;99.90;;;;;;5032181;28;20203;-57
2022/04/06 05:19:34;;;;;;;5.57;4.37;;;12.60;99.90;;;;;;5032196;28;20206;-58
2022/04/06 05:22:04;;;;;;;6.47;4.13;;;12.60;99.90;;;;;;5032481;28;20233;-57
2022/04/06 05:24:30;;;;;;;5.03;4.00;;;12.70;99.90;;;;;;5031989;28;20225;-58
2022/04/06 05:26:59;;;;;;;5.13;4.43;;;12.70;99.90;;;;;;5032361;28;20214;-57
2022/04/06 05:29:25;;;;;;;5.80;4.13;;;12.70;99.90;;;;;;5032081;28;20696;-57
2022/04/06 05:31:52;;;;;;;6.27;4.03;;;12.70;99.90;;;;;;5031932;28;20674;-57
2022/04/06 05:34:19;;;;;;;6.93;4.13;;;12.80;99.90;;;;;;5032045;28;20230;-59
2022/04/06 05:36:45;;;;;;;6.40;4.43;;;12.90;99.90;;;;;;5031963;28;20207;-57
2022/04/06 05:39:13;;;;;;;7.70;4.13;;;12.90;99.90;;;;;;5031990;28;20673;-58
2022/04/06 05:41:40;;;;;;;7.00;3.77;;;12.90;99.90;;;;;;5031985;28;20213;-57
2022/04/06 05:44:07;;;;;;;7.73;4.00;;;12.80;99.90;;;;;;5031547;28;20230;-58
2022/04/06 05:46:33;;;;;;;4.93;3.80;;;12.80;99.90;;;;;;5031733;28;20288;-59
2022/04/06 05:49:00;;;;;;;5.23;3.93;;;12.80;99.90;;;;;;5031962;28;20206;-57
2022/04/06 05:51:27;;;;;;;5.90;4.30;;;12.90;99.90;;;;;;5032053;28;20628;-59
2022/04/06 05:53:53;;;;;;;4.70;4.13;;;12.90;99.90;;;;;;5031511;28;20245;-57
2022/04/06 05:56:22;;;;;;;5.73;3.93;;;12.90;99.90;;;;;;5032248;28;20202;-58
2022/04/06 05:58:48;;;;;;;7.50;6.77;;;13.00;99.90;;;;;;5031854;28;20619;-57
2022/04/06 06:01:16;;;;;;;4.73;4.00;;;13.00;99.90;;;;;;5032144;28;20218;-57
2022/04/06 06:03:43;;;;;;;7.50;4.17;;;13.10;99.90;;;;;;5031784;28;20206;-56
2022/04/06 06:06:09;;;;;;;6.20;4.17;;;13.20;99.90;;;;;;5031716;28;20710;-57
2022/04/06 06:08:36;;;;;;;5.70;5.10;;;13.20;99.90;;;;;;5031766;28;20260;-57
2022/04/06 06:11:03;;;;;;;5.17;4.10;;;13.30;99.90;;;;;;5033767;28;20252;-57
2022/04/06 06:13:32;;;;;;;6.80;5.30;;;13.30;99.90;;;;;;5035345;28;20302;-58
2022/04/06 06:16:00;;;;;;;4.57;3.83;;;13.40;99.90;;;;;;5035655;28;20210;-57
2022/04/06 06:18:27;;;;;;;6.67;4.20;;;13.50;99.90;;;;;;5035984;28;20214;-57
2022/04/06 06:20:56;;;;;;;10.40;4.10;;;13.50;99.90;;;;;;5035805;28;20216;-57
2022/04/06 06:23:22;;;;;;;5.87;3.80;;;13.60;99.90;;;;;;5035388;28;20206;-57
2022/04/06 06:25:49;;;;;;;6.30;4.57;;;13.50;99.90;;;;;;5035350;28;20574;-57
2022/04/06 06:28:16;;;;;;;4.57;3.80;;;13.60;99.90;;;;;;5035465;28;20608;-59
2022/04/06 06:30:44;;;;;;;4.80;4.17;;;13.70;99.90;;;;;;5035717;28;20561;-59
2022/04/06 06:33:10;;;;;;;6.03;4.70;;;13.70;99.90;;;;;;5035415;28;20202;-59
2022/04/06 06:35:37;;;;;;;9.27;4.70;;;13.80;99.90;;;;;;5035036;28;20694;-58
2022/04/06 06:38:04;;;;;;;6.43;4.20;;;13.90;99.90;;;;;;5035479;28;20214;-58
2022/04/06 06:40:30;;;;;;;4.63;4.13;;;13.90;99.90;;;;;;5035903;28;20203;-59
2022/04/06 06:42:57;;;;;;;6.47;4.50;;;14.00;99.90;;;;;;5035446;28;20210;-59
2022/04/06 06:45:24;;;;;;;4.83;4.17;;;13.90;99.90;;;;;;5035160;28;20506;-58
2022/04/06 06:47:52;;;;;;;8.90;4.80;;;13.90;99.90;;;;;;5034969;28;20213;-58
2022/04/06 06:50:19;;;;;;;5.87;4.80;;;14.00;99.90;;;;;;5035062;28;20207;-59
2022/04/06 06:52:47;;;;;;;6.43;5.10;;;14.00;99.90;;;;;;5034693;28;20685;-58
2022/04/06 06:55:13;;;;;;;8.53;4.70;;;14.10;99.90;;;;;;5034867;28;20261;-58
2022/04/06 06:57:40;;;;;;;5.17;4.30;;;14.10;99.90;;;;;;5035007;28;20206;-59
2022/04/06 07:00:11;;;;;;;5.77;3.93;;;14.20;99.90;;;;;;5034896;28;20202;-59
2022/04/06 07:02:38;;;;;;;4.87;4.37;;;14.10;99.90;;;;;;5034611;28;20305;-58
2022/04/06 07:05:07;;;;;;;7.03;4.30;;;14.20;99.90;;;;;;5034029;28;20307;-58
2022/04/06 07:07:47;;;;;;;5.00;4.07;;;14.30;99.90;;;;;;5034480;28;20206;-58
2022/04/06 07:10:13;;;;;;;5.23;4.13;;;14.40;99.90;;;;;;5034566;28;20219;-59
2022/04/06 07:12:41;;;;;;;5.47;4.10;;;14.50;99.90;;;;;;5034620;28;20218;-58
2022/04/06 07:15:09;;;;;;;5.00;4.50;;;14.60;99.90;;;;;;5035146;28;20229;-59
2022/04/06 07:17:35;;;;;;;6.63;4.40;;;14.60;99.90;;;;;;5034513;28;20264;-59
2022/04/06 07:20:02;;;;;;;4.47;3.73;;;14.60;99.90;;;;;;5034696;28;20230;-58
2022/04/06 07:22:30;;;;;;;5.27;4.00;;;14.60;99.90;;;;;;5034306;28;20225;-59
2022/04/06 07:24:57;;;;;;;10.33;6.50;;;14.70;99.90;;;;;;5034579;28;20234;-59
2022/04/06 07:27:23;;;;;;;5.57;4.43;;;14.80;99.90;;;;;;5034704;28;20598;-59
2022/04/06 07:29:51;;;;;;;4.43;3.67;;;14.90;99.90;;;;;;5034507;28;20214;-59
2022/04/06 07:32:18;;;;;;;9.73;4.47;;;14.90;99.90;;;;;;5034497;28;20256;-58
2022/04/06 07:34:45;;;;;;;5.00;4.30;;;14.90;99.90;;;;;;5033883;28;20230;-59
2022/04/06 07:37:11;;;;;;;6.93;3.60;;;15.00;99.90;;;;;;5034615;28;20202;-59
2022/04/06 07:39:39;;;;;;;9.83;7.80;;;15.00;99.90;;;;;;5034516;28;20206;-58
2022/04/06 07:42:06;;;;;;;7.40;3.90;;;15.10;99.90;;;;;;5034149;28;20213;-57
2022/04/06 07:44:33;;;;;;;10.27;3.80;;;15.20;99.90;;;;;;5033962;28;20284;-57
2022/04/06 07:47:00;;;;;;;4.63;3.40;;;15.30;99.90;;;;;;5033995;28;20234;-58
2022/04/06 07:49:27;;;;;;;5.47;3.50;;;15.40;99.90;;;;;;5034270;28;20210;-58
2022/04/06 07:51:54;;;;;;;7.27;3.60;;;15.40;99.90;;;;;;5034207;28;20310;-58
2022/04/06 07:54:20;;;;;;;5.13;3.50;;;15.60;99.90;;;;;;5034235;28;20307;-59
2022/04/06 07:56:48;;;;;;;6.70;3.60;;;15.70;99.90;;;;;;5034185;28;20615;-60
2022/04/06 07:59:15;;;;;;;3.60;3.30;;;15.80;99.90;;;;;;5029333;28;20526;-62
2022/04/06 08:01:41;;;;;;;9.17;3.90;;;15.80;99.90;;;;;;5033636;28;20214;-59
2022/04/06 08:04:08;;;;;;;6.17;3.77;;;15.90;99.90;;;;;;5033581;28;20762;-61
2022/04/06 08:06:35;;;;;;;5.50;3.80;;;16.00;99.90;;;;;;5033815;28;20230;-62
2022/04/06 08:09:02;;;;;;;5.33;3.57;;;15.90;99.90;;;;;;5029390;28;20214;-61
2022/04/06 08:11:29;;;;;;;5.30;3.57;;;15.80;99.90;;;;;;5033798;28;20202;-59
2022/04/06 08:13:57;;;;;;;4.43;3.40;;;15.80;99.90;;;;;;5033192;28;20230;-59
2022/04/06 08:16:24;;;;;;;4.00;3.60;;;15.90;99.90;;;;;;5032067;28;20612;-58
2022/04/06 08:18:50;;;;;;;4.87;3.63;;;15.90;99.90;;;;;;5033301;28;20633;-60
2022/04/06 08:21:17;;;;;;;3.63;3.03;;;16.00;99.90;;;;;;5033398;28;20558;-60
2022/04/06 08:23:44;;;;;;;7.77;3.37;;;16.10;99.90;;;;;;5033164;28;20209;-59
2022/04/06 08:26:10;;;;;;;6.22;3.58;;;16.40;99.90;;;;;;5033325;28;20226;-60
2022/04/06 08:28:40;;;;;;;4.67;3.33;;;16.90;99.90;;;;;;5033308;28;20210;-60
2022/04/06 08:31:08;;;;;;;3.83;3.33;;;17.40;99.90;;;;;;5032639;28;20210;-60
2022/04/06 08:33:36;;;;;;;3.20;2.90;;;17.70;99.90;;;;;;5032487;28;20264;-61
2022/04/06 08:36:06;;;;;;;3.53;2.93;;;17.80;99.90;;;;;;5033270;28;20202;-58
2022/04/06 08:38:33;;;;;;;3.22;2.90;;;17.80;99.90;;;;;;5033334;28;20697;-59
2022/04/06 08:40:59;;;;;;;2.60;2.22;;;17.70;99.90;;;;;;5033050;28;20206;-63
2022/04/06 08:43:26;;;;;;;3.08;2.40;;;17.50;99.90;;;;;;5032932;28;20206;-61
2022/04/06 08:45:55;;;;;;;3.93;2.23;;;17.20;99.90;;;;;;5032931;28;20312;-61
2022/04/06 08:48:29;;;;;;;5.53;3.73;;;17.00;99.90;;;;;;5032735;28;20674;-59
2022/04/06 08:50:59;;;;;;;2.63;2.43;;;17.00;99.90;;;;;;5032730;28;20240;-60
2022/04/06 08:53:25;;;;;;;3.23;2.80;;;17.00;99.90;;;;;;5032394;28;20210;-60
2022/04/06 08:55:52;;;;;;;2.90;2.40;;;16.90;99.90;;;;;;5032172;28;20292;-59
2022/04/06 08:58:19;;;;;;;4.37;2.53;;;16.80;99.90;;;;;;5032473;28;20202;-62
2022/04/06 09:00:45;;;;;;;3.73;2.77;;;16.50;99.90;;;;;;5032657;28;20206;-60
2022/04/06 09:03:13;;;;;;;4.90;2.53;;;16.30;99.90;;;;;;5032637;28;20208;-60
2022/04/06 09:05:41;;;;;;;3.20;2.60;;;16.20;99.90;;;;;;5032120;28;20810;-62
2022/04/06 09:08:09;;;;;;;3.30;2.70;;;16.30;99.90;;;;;;5031990;28;20206;-58
2022/04/06 09:10:37;;;;;;;3.57;2.97;;;16.40;99.90;;;;;;5032134;28;20618;-57
2022/04/06 09:13:12;;;;;;;4.30;2.73;;;16.40;99.90;;;;;;5032227;28;20264;-58
2022/04/06 09:15:39;;;;;;;5.40;2.93;;;16.30;99.90;;;;;;5032265;28;20229;-60
2022/04/06 09:18:06;;;;;;;3.40;2.87;;;16.10;99.90;;;;;;5032302;28;20206;-58
2022/04/06 09:20:33;;;;;;;3.30;2.60;;;16.10;99.90;;;;;;5031893;28;20207;-57
2022/04/06 09:23:03;;;;;;;3.13;2.50;;;16.00;99.90;;;;;;5031750;28;20216;-58
2022/04/06 09:25:34;;;;;;;5.23;2.87;;;16.30;99.90;;;;;;5032260;28;20575;-57
2022/04/06 09:28:09;;;;;;;4.60;2.33;;;16.70;99.90;;;;;;5032239;28;20300;-58
2022/04/06 09:30:39;;;;;;;4.50;2.13;;;17.10;99.90;;;;;;5032271;28;20210;-59
2022/04/06 09:33:13;;;;;;;4.90;2.60;;;17.40;99.90;;;;;;5031699;28;20574;-62
2022/04/06 09:35:41;;;;;;;3.22;1.83;;;17.60;99.90;;;;;;5032099;28;20230;-56
2022/04/06 09:38:13;;;;;;;4.07;2.30;;;17.90;99.90;;;;;;5032077;28;20256;-56
2022/04/06 09:40:40;;;;;;;1.67;1.20;;;18.10;99.90;;;;;;5032404;28;20272;-56
2022/04/06 09:43:08;;;;;;;3.55;2.00;;;18.30;99.90;;;;;;5031862;28;20605;-56
2022/04/06 09:48:19;;;;;;;1.75;1.10;;;19.20;99.90;;;;;;5032423;28;20236;-56
2022/04/06 09:50:56;;;;;;;1.98;1.17;;;19.60;99.90;;;;;;5032590;28;20260;-57
2022/04/06 09:53:26;;;;;;;1.10;0.88;;;19.90;99.90;;;;;;5031743;28;20673;-56
2022/04/06 09:55:55;;;;;;;1.48;1.20;;;19.80;99.10;;;;;;5031884;28;20253;-58
2022/04/06 09:58:22;;;;;;;1.02;0.80;;;19.60;99.00;;;;;;5031808;28;20297;-57
2022/04/06 10:00:50;;;;;;;1.80;0.68;;;19.50;98.80;;;;;;5031669;28;20210;-57
2022/04/06 10:03:19;;;;;;;1.35;0.90;;;19.30;99.30;;;;;;5031677;28;20210;-57
2022/04/06 10:05:49;;;;;;;2.53;0.80;;;19.20;98.90;;;;;;5031611;28;20238;-57
2022/04/06 10:08:17;;;;;;;3.30;0.93;;;19.30;99.00;;;;;;5031720;28;20216;-56
2022/04/06 10:10:47;;;;;;;1.27;0.70;;;19.50;98.40;;;;;;5031527;28;20586;-57
2022/04/06 10:13:14;;;;;;;0.95;0.70;;;19.80;98.00;;;;;;5031624;28;20236;-57
2022/04/06 10:15:42;;;;;;;1.48;0.90;;;20.00;97.40;;;;;;5031591;28;20225;-56
2022/04/06 10:18:09;;;;;;;3.03;0.80;;;20.20;97.00;;;;;;5031693;28;20232;-58
2022/04/06 10:20:42;;;;;;;2.13;0.47;;;20.30;97.10;;;;;;5031662;28;20561;-58
2022/04/06 10:23:17;;;;;;;3.13;0.52;;;20.30;96.60;;;;;;5031293;28;20206;-57
2022/04/06 10:25:59;;;;;;;0.63;0.57;;;20.10;96.30;;;;;;5031741;28;20241;-57
2022/04/06 10:28:26;;;;;;;1.95;0.93;;;20.00;96.20;;;;;;5031776;28;20210;-57
2022/04/06 10:31:16;;;;;;;1.58;0.90;;;20.10;96.20;;;;;;5031730;28;20202;-57
2022/04/06 10:33:43;;;;;;;1.45;0.88;;;20.40;95.70;;;;;;5031201;28;20210;-58
2022/04/06 10:36:18;;;;;;;1.77;1.35;;;20.60;95.20;;;;;;5031699;28;20209;-58
2022/04/06 10:39:11;;;;;;;2.15;0.88;;;20.70;95.00;;;;;;5031704;28;20285;-57
2022/04/06 10:41:41;;;;;;;0.90;0.82;;;20.80;94.90;;;;;;5031488;28;20210;-57
2022/04/06 10:44:08;;;;;;;3.25;1.30;;;20.90;94.60;;;;;;5031179;28;20241;-57
2022/04/06 10:46:38;;;;;;;0.75;0.50;;;20.90;94.30;;;;;;5031516;28;20226;-57
2022/04/06 10:49:15;;;;;;;4.07;1.10;;;21.20;93.80;;;;;;5031391;28;20652;-57
2022/04/06 10:51:43;;;;;;;2.90;1.08;;;21.30;93.80;;;;;;5031691;28;20211;-57
2022/04/06 10:54:41;;;;;;;1.83;1.10;;;21.30;93.20;;;;;;5031041;28;20295;-60
2022/04/06 10:57:09;;;;;;;3.00;1.00;;;21.20;93.20;;;;;;5033384;28;20206;-58
2022/04/06 10:59:36;;;;;;;1.20;0.52;;;21.30;93.50;;;;;;5035019;28;20715;-58
2022/04/06 11:02:17;;;;;;;1.15;0.40;;;21.20;91.80;;;;;;5035104;28;20233;-58
2022/04/06 11:04:44;;;;;;;1.40;0.20;;;21.00;92.10;;;;;;5034844;28;20604;-57
2022/04/06 11:07:13;;;;;;;0.70;0.60;;;21.00;91.50;;;;;;5034550;28;20230;-57
2022/04/06 11:12:27;;;;;;;0.90;0.57;;;20.80;92.20;;;;;;5035061;28;20252;-57
2022/04/06 11:15:21;;;;;;;1.00;0.68;;;20.60;92.70;;;;;;5034336;28;20226;-58
2022/04/06 11:17:48;;;;;;;2.63;0.60;;;20.80;93.00;;;;;;5034601;28;20293;-57
2022/04/06 11:20:18;;;;;;;0.70;0.43;;;20.70;92.00;;;;;;5034957;28;20213;-58
2022/04/06 11:22:53;;;;;;;0.50;0.30;;;20.70;92.00;;;;;;5034754;28;20214;-58
2022/04/06 11:25:23;;;;;;;0.73;0.40;;;20.60;91.60;;;;;;5034411;28;20264;-57
2022/04/06 11:27:54;;;;;;;0.20;0.20;;;20.50;90.60;;;;;;5034206;28;20237;-57
2022/04/06 11:30:22;;;;;;;3.20;0.35;;;20.40;90.90;;;;;;5034312;28;20210;-57
2022/04/06 11:32:53;;;;;;;14.50;2.92;;;20.30;89.80;;;;;;5034790;28;20214;-58
2022/04/06 11:35:21;;;;;;;5.75;1.60;;;20.30;90.40;;;;;;5034358;28;20279;-57
2022/04/06 11:37:49;;;;;;;7.22;1.30;;;20.30;90.50;;;;;;5034350;28;20207;-57
2022/04/06 11:40:17;;;;;;;2.30;0.55;;;20.40;90.80;;;;;;5034214;28;20271;-57
2022/04/06 11:42:48;;;;;;;0.68;0.32;;;20.20;90.80;;;;;;5033917;28;20284;-57
2022/04/06 11:45:22;;;;;;;0.13;0.13;;;20.00;90.00;;;;;;5033817;28;20321;-57
2022/04/06 11:47:54;;;;;;;1.70;1.13;;;19.90;90.20;;;;;;5033757;28;20230;-57
2022/04/06 11:50:21;;;;;;;0.40;0.40;;;19.70;90.70;;;;;;5034303;28;20745;-57
2022/04/06 11:52:48;;;;;;;0.40;0.38;;;19.70;91.40;;;;;;5034125;28;20217;-58
2022/04/06 11:55:15;;;;;;;0.28;0.28;;;19.90;91.20;;;;;;5033536;28;20234;-57
2022/04/06 11:57:45;;;;;;;0.38;0.20;;;20.00;90.90;;;;;;5033973;28;20670;-57
2022/04/06 12:00:15;;;;;;;0.82;0.40;;;20.00;90.10;;;;;;5033990;28;20257;-57
2022/04/06 12:02:51;;;;;;;1.02;0.50;;;19.80;90.50;;;;;;5033865;28;20210;-57
2022/04/06 12:05:19;;;;;;;8.85;3.20;;;19.50;90.50;;;;;;5033513;28;20237;-57
2022/04/06 12:07:46;;;;;;;5.40;3.33;;;19.40;90.80;;;;;;5032553;28;20776;-57
2022/04/06 12:10:13;;;;;;;2.47;0.40;;;19.30;90.50;;;;;;5033805;28;20690;-57
2022/04/06 12:12:40;;;;;;;2.30;0.60;;;19.20;91.00;;;;;;5033650;28;20559;-58
2022/04/06 12:15:08;;;;;;;1.40;0.47;;;19.20;91.40;;;;;;5033320;28;20321;-58
2022/04/06 12:17:35;;;;;;;7.25;1.77;;;19.20;90.80;;;;;;5033264;28;20670;-57
2022/04/06 12:20:22;;;;;;;9.82;1.25;;;19.40;91.30;;;;;;5033495;28;20617;-58
2022/04/06 12:23:00;;;;;;;0.30;0.30;;;19.50;90.50;;;;;;5033483;28;20657;-58
2022/04/06 12:25:28;;;;;;;25.88;4.13;;;19.30;90.50;;;;;;5033480;28;20230;-57
2022/04/06 12:28:13;;;;;;;0.57;0.32;;;19.30;90.30;;;;;;5033167;28;20313;-57
2022/04/06 12:30:57;;;;;;;1.15;0.40;;;19.30;90.70;;;;;;5033377;28;20264;-57
2022/04/06 12:33:34;;;;;;;11.70;2.17;;;19.50;91.30;;;;;;5033128;28;20670;-58
2022/04/06 12:36:13;;;;;;;2.40;0.52;;;19.70;90.50;;;;;;5033146;28;20210;-58
2022/04/06 12:38:42;;;;;;;0.80;0.40;;;19.90;90.40;;;;;;5033110;28;20234;-58
2022/04/06 12:41:10;;;;;;;8.50;0.90;;;20.00;89.10;;;;;;5033073;28;20214;-58
2022/04/06 12:43:38;;;;;;;4.38;1.13;;;20.00;88.40;;;;;;5032931;28;20214;-57
2022/04/06 12:46:05;;;;;;;3.63;0.98;;;20.20;89.10;;;;;;5033176;28;20202;-59
2022/04/06 12:48:32;;;;;;;13.18;1.70;;;20.50;87.60;;;;;;5033212;28;20321;-57
2022/04/06 12:50:58;;;;;;;0.88;0.80;;;20.70;86.90;;;;;;5033242;28;20650;-58
2022/04/06 12:53:26;;;;;;;6.65;1.58;;;20.80;87.30;;;;;;5032462;28;20210;-58
2022/04/06 12:56:11;;;;;;;1.63;0.50;;;21.10;85.50;;;;;;5032506;28;20610;-58
2022/04/06 12:58:38;;;;;;;0.47;0.13;;;21.10;84.50;;;;;;5032806;28;20214;-58
2022/04/06 13:01:09;;;;;;;0.65;0.30;;;21.00;81.90;;;;;;5032546;28;20681;-58